Time;durP1;ratioP1;P1;durP2;ratioP2;P2;SDS_P1;SDS_P2;PMS_P1;PMS_P2;Temp;Humidity;BMP_temperature;BMP_pressure;BME280_temperature;BME280_humidity;BME280_pressure;Samples;Min_cycle;Max_cycle;Signal;HPM_P1;HPM_P2
2024/01/28 00:01:57;;;;;;;18.40;3.60;;;;;;;1.43;100.00;103180.66;4983266;28;20035;-70
2024/01/28 00:04:23;;;;;;;16.98;3.65;;;;;;;1.42;100.00;103184.94;4962772;28;20431;-70
2024/01/28 00:06:49;;;;;;;14.83;3.47;;;;;;;1.40;100.00;103177.69;4980941;28;20034;-65
2024/01/28 00:11:42;;;;;;;18.10;3.60;;;;;;;1.35;100.00;103168.41;5083143;27;20420;-65
2024/01/28 00:14:08;;;;;;;14.45;3.00;;;;;;;1.34;100.00;103177.88;5082124;28;20040;-68
2024/01/28 00:16:33;;;;;;;12.48;3.10;;;;;;;1.34;100.00;103169.16;5072698;28;20033;-70
2024/01/28 00:18:59;;;;;;;13.03;3.30;;;;;;;1.34;100.00;103169.16;5063320;28;20638;-67
2024/01/28 00:21:25;;;;;;;17.83;3.10;;;;;;;1.33;100.00;103162.13;5061023;28;20051;-64
2024/01/28 00:23:53;;;;;;;12.85;3.50;;;;;;;1.32;100.00;103169.00;5070109;28;20037;-67
2024/01/28 00:26:20;;;;;;;11.98;3.65;;;;;;;1.30;100.00;103181.81;5069019;28;20516;-68
2024/01/28 00:28:45;;;;;;;14.40;3.87;;;;;;;1.30;100.00;103178.28;5063146;28;20036;-67
2024/01/28 00:31:13;;;;;;;17.13;3.80;;;;;;;1.28;100.00;103175.50;5044334;28;21030;-65
2024/01/28 00:33:39;;;;;;;12.55;3.78;;;;;;;1.26;100.00;103169.22;5068117;28;20086;-65
2024/01/28 00:36:05;;;;;;;9.00;3.03;;;;;;;1.24;100.00;103164.56;5062148;28;20108;-64
2024/01/28 00:38:33;;;;;;;13.35;3.30;;;;;;;1.21;100.00;103175.56;5061640;28;20045;-64
2024/01/28 00:40:59;;;;;;;16.90;3.80;;;;;;;1.18;100.00;103175.22;5060573;28;20037;-67
2024/01/28 00:43:25;;;;;;;20.20;3.45;;;;;;;1.16;100.00;103176.69;5060890;28;20526;-64
2024/01/28 00:45:50;;;;;;;12.23;3.30;;;;;;;1.13;100.00;103176.34;5069182;28;20041;-68
2024/01/28 00:48:15;;;;;;;15.85;3.55;;;;;;;1.10;100.00;103178.56;5065498;28;20032;-67
2024/01/28 00:50:41;;;;;;;23.07;3.30;;;;;;;1.06;100.00;103175.44;5062556;28;20215;-64
2024/01/28 00:53:06;;;;;;;12.63;2.80;;;;;;;1.03;100.00;103168.22;5060714;28;20078;-70
2024/01/28 00:55:32;;;;;;;9.53;3.17;;;;;;;1.00;100.00;103175.63;5060560;28;20481;-67
2024/01/28 00:57:58;;;;;;;12.68;3.72;;;;;;;1.01;100.00;103190.50;5060604;28;20036;-66
2024/01/28 01:00:25;;;;;;;14.27;3.63;;;;;;;0.99;100.00;103185.91;5061200;28;20059;-73
2024/01/28 01:02:52;;;;;;;14.20;3.50;;;;;;;0.96;100.00;103195.91;5060443;28;20040;-66
2024/01/28 01:05:17;;;;;;;12.77;3.65;;;;;;;0.90;100.00;103193.53;5059572;28;20032;-65
2024/01/28 01:07:43;;;;;;;13.97;3.57;;;;;;;0.83;100.00;103190.97;5067567;28;20091;-71
2024/01/28 01:10:08;;;;;;;10.02;3.55;;;;;;;0.80;100.00;103188.91;5058662;28;20047;-64
2024/01/28 01:12:34;;;;;;;12.73;3.17;;;;;;;0.78;100.00;103184.28;5059254;28;20599;-71
2024/01/28 01:17:19;;;;;;;25.60;3.40;;;;;;;0.72;100.00;103183.56;5060505;28;20361;-67
2024/01/28 01:19:44;;;;;;;17.20;3.63;;;;;;;0.66;100.00;103181.16;5037309;28;20042;-63
2024/01/28 01:22:10;;;;;;;16.25;4.15;;;;;;;0.61;100.00;103179.66;5021227;28;20120;-66
2024/01/28 01:24:35;;;;;;;13.63;2.77;;;;;;;0.60;100.00;103183.00;5020960;28;20128;-65
2024/01/28 01:27:01;;;;;;;10.73;3.43;;;;;;;0.59;100.00;103185.47;5020593;28;20057;-68
2024/01/28 01:29:26;;;;;;;14.88;3.28;;;;;;;0.58;100.00;103181.00;5020815;28;20126;-64
2024/01/28 01:31:53;;;;;;;13.63;3.37;;;;;;;0.59;100.00;103180.25;5021172;28;20418;-63
2024/01/28 01:34:18;;;;;;;13.38;2.88;;;;;;;0.58;100.00;103183.59;5020902;28;20409;-63
2024/01/28 01:36:44;;;;;;;11.77;3.00;;;;;;;0.57;100.00;103182.66;5020341;28;20779;-68
2024/01/28 01:39:10;;;;;;;17.57;3.70;;;;;;;0.58;100.00;103189.72;5020603;28;20041;-63
2024/01/28 01:41:35;;;;;;;14.63;3.40;;;;;;;0.57;100.00;103186.94;5020616;28;20037;-64
2024/01/28 01:44:01;;;;;;;11.13;2.60;;;;;;;0.59;100.00;103190.66;5021629;28;20461;-66
2024/01/28 01:46:27;;;;;;;24.17;3.70;;;;;;;0.59;100.00;103185.47;5020407;28;20056;-68
2024/01/28 01:48:52;;;;;;;13.32;3.40;;;;;;;0.58;100.00;103186.19;5028434;28;20065;-69
2024/01/28 01:51:17;;;;;;;13.97;2.83;;;;;;;0.57;100.00;103184.34;5020526;28;20668;-64
2024/01/28 01:53:43;;;;;;;15.65;3.10;;;;;;;0.54;100.00;103182.31;5019872;28;20041;-66
2024/01/28 01:56:09;;;;;;;8.73;2.93;;;;;;;0.53;100.00;103189.91;5019718;28;20092;-64
2024/01/28 01:58:35;;;;;;;15.20;3.35;;;;;;;0.53;100.00;103192.50;5021018;28;20080;-65
2024/01/28 02:01:01;;;;;;;12.90;3.30;;;;;;;0.51;100.00;103183.59;5028859;28;20108;-68
2024/01/28 02:03:29;;;;;;;16.40;3.38;;;;;;;0.48;100.00;103191.03;5028358;28;20084;-69
2024/01/28 02:05:54;;;;;;;11.95;3.03;;;;;;;0.44;100.00;103190.66;5019735;28;20132;-68
2024/01/28 02:08:20;;;;;;;12.47;3.10;;;;;;;0.42;100.00;103186.03;5019859;28;20045;-64
2024/01/28 02:10:46;;;;;;;14.83;3.93;;;;;;;0.40;100.00;103192.69;5019495;28;20075;-64
2024/01/28 02:13:11;;;;;;;19.27;3.90;;;;;;;0.37;100.00;103189.75;5019758;28;20065;-68
2024/01/28 02:15:38;;;;;;;18.53;3.70;;;;;;;0.31;100.00;103184.75;5019012;28;20038;-64
2024/01/28 02:18:04;;;;;;;14.25;3.35;;;;;;;0.28;100.00;103183.44;5019292;28;20061;-71
2024/01/28 02:20:29;;;;;;;19.05;3.53;;;;;;;0.22;100.00;103178.44;5018946;28;20379;-64
2024/01/28 02:22:55;;;;;;;11.93;3.10;;;;;;;0.17;100.00;103186.41;5018803;28;20060;-66
2024/01/28 02:25:21;;;;;;;11.50;2.55;;;;;;;0.07;100.00;103183.44;5019225;28;20042;-69
2024/01/28 02:27:46;;;;;;;12.90;2.63;;;;;;;0.02;100.00;103180.31;5011055;28;20072;-64
2024/01/28 02:30:13;;;;;;;16.00;3.83;;;;;;;-0.01;100.00;103187.75;5004742;28;20089;-61
2024/01/28 02:32:46;;;;;;;11.57;2.78;;;;;;;-0.02;100.00;103186.81;5008194;28;20049;-59
2024/01/28 02:35:12;;;;;;;18.25;3.47;;;;;;;-0.05;100.00;103189.00;5009397;28;20042;-66
2024/01/28 02:37:37;;;;;;;10.77;2.97;;;;;;;-0.04;100.00;103182.16;5006626;28;20116;-65
2024/01/28 02:40:04;;;;;;;14.90;4.43;;;;;;;-0.06;100.00;103175.84;5005936;28;20052;-63
2024/01/28 02:42:29;;;;;;;9.18;3.05;;;;;;;-0.10;100.00;103168.44;5005732;28;20049;-66
2024/01/28 02:44:54;;;;;;;13.50;3.67;;;;;;;-0.10;100.00;103158.06;5006150;28;20033;-63
2024/01/28 02:47:20;;;;;;;19.07;3.43;;;;;;;-0.11;100.00;103163.97;5006289;28;20106;-69
2024/01/28 02:52:12;;;;;;;10.00;3.35;;;;;;;-0.09;100.00;103166.00;4997761;28;20442;-69
2024/01/28 02:54:37;;;;;;;16.57;3.23;;;;;;;-0.10;100.00;103163.25;4988552;28;20042;-69
2024/01/28 02:57:03;;;;;;;11.38;3.08;;;;;;;-0.09;100.00;103170.28;4978353;28;20039;-64
2024/01/28 02:59:28;;;;;;;9.80;2.77;;;;;;;-0.10;100.00;103168.44;4976646;28;20050;-65
2024/01/28 03:04:24;;;;;;;10.80;3.10;;;;;;;-0.10;100.00;103169.34;5061090;28;20442;-70
2024/01/28 03:06:50;;;;;;;8.43;3.30;;;;;;;-0.09;100.00;103165.06;5041838;28;20493;-66
2024/01/28 03:09:17;;;;;;;10.93;2.80;;;;;;;-0.10;100.00;103158.06;5041017;28;20119;-65
2024/01/28 03:11:42;;;;;;;13.07;3.03;;;;;;;-0.09;100.00;103165.06;5021299;28;20088;-66
2024/01/28 03:14:08;;;;;;;9.25;3.17;;;;;;;-0.10;100.00;103163.25;5019881;28;20038;-68
2024/01/28 03:16:34;;;;;;;11.35;3.63;;;;;;;-0.13;100.00;103162.84;5020683;28;20045;-64
2024/01/28 03:18:59;;;;;;;13.07;3.10;;;;;;;-0.17;100.00;103160.63;5021458;28;20172;-67
2024/01/28 03:21:25;;;;;;;7.93;3.30;;;;;;;-0.21;100.00;103161.94;5020489;28;20133;-63
2024/01/28 03:23:50;;;;;;;13.97;3.27;;;;;;;-0.23;100.00;103154.69;5020625;28;20042;-71
2024/01/28 03:26:16;;;;;;;9.43;2.80;;;;;;;-0.22;100.00;103161.75;5020283;28;20038;-68
2024/01/28 03:28:42;;;;;;;15.20;3.35;;;;;;;-0.24;100.00;103161.53;5020513;28;20045;-74
2024/01/28 03:31:08;;;;;;;12.90;3.30;;;;;;;-0.23;100.00;103159.88;5025970;28;20048;-67
2024/01/28 03:33:33;;;;;;;9.90;2.90;;;;;;;-0.23;100.00;103160.81;5030072;28;20264;-71
2024/01/28 03:35:59;;;;;;;10.35;3.28;;;;;;;-0.23;100.00;103162.47;5024571;28;20056;-61
2024/01/28 03:38:24;;;;;;;29.33;3.73;;;;;;;-0.24;100.00;103163.22;5024825;28;20052;-62
2024/01/28 03:40:50;;;;;;;24.20;4.07;;;;;;;-0.24;100.00;103168.41;5020159;28;20646;-65
2024/01/28 03:45:28;;;;;;;9.65;3.38;;;;;;;-0.25;100.00;103161.38;5101294;27;20362;-67
2024/01/28 03:47:53;;;;;;;17.17;3.30;;;;;;;-0.26;100.00;103162.13;5078369;28;20050;-67
2024/01/28 03:50:19;;;;;;;11.90;3.35;;;;;;;-0.26;100.00;103163.03;5076685;28;20115;-64
2024/01/28 03:52:45;;;;;;;8.23;2.63;;;;;;;-0.29;100.00;103157.44;5061154;28;20041;-67
2024/01/28 03:55:11;;;;;;;12.00;3.13;;;;;;;-0.30;100.00;103157.28;5068758;28;20123;-65
2024/01/28 03:57:39;;;;;;;15.47;3.43;;;;;;;-0.34;100.00;103161.16;5063282;28;20040;-69
2024/01/28 04:00:06;;;;;;;8.73;2.97;;;;;;;-0.37;100.00;103163.41;5060803;28;20032;-66
2024/01/28 04:02:38;;;;;;;9.30;2.72;;;;;;;-0.41;100.00;103162.84;5063582;28;20076;-67
2024/01/28 04:05:04;;;;;;;14.25;3.28;;;;;;;-0.42;100.00;103161.91;5072410;28;20048;-67
2024/01/28 04:07:30;;;;;;;8.73;3.63;;;;;;;-0.45;100.00;103157.28;5064534;28;20086;-66
2024/01/28 04:09:55;;;;;;;16.83;3.23;;;;;;;-0.45;100.00;103159.88;5060393;28;20301;-64
2024/01/28 04:12:22;;;;;;;17.17;3.97;;;;;;;-0.45;100.00;103157.28;5061174;28;20059;-67
2024/01/28 04:14:47;;;;;;;12.80;3.90;;;;;;;-0.45;100.00;103159.88;5060626;28;20115;-67
2024/01/28 04:17:12;;;;;;;12.10;3.23;;;;;;;-0.45;100.00;103157.28;5060403;28;20886;-68
2024/01/28 04:19:38;;;;;;;10.93;3.23;;;;;;;-0.46;100.00;103158.00;5060194;28;20033;-65
2024/01/28 04:22:03;;;;;;;10.80;3.37;;;;;;;-0.46;100.00;103155.41;5065195;28;20123;-72
2024/01/28 04:24:29;;;;;;;13.15;3.45;;;;;;;-0.46;100.00;103157.06;5063491;28;20040;-68
2024/01/28 04:26:55;;;;;;;16.87;4.00;;;;;;;-0.47;100.00;103160.41;5052743;28;20123;-64
2024/01/28 04:29:20;;;;;;;12.63;3.08;;;;;;;-0.49;100.00;103156.69;5060013;28;20040;-67
2024/01/28 04:31:46;;;;;;;16.90;2.90;;;;;;;-0.51;100.00;103160.78;5060064;28;20033;-66
2024/01/28 04:34:11;;;;;;;8.57;3.03;;;;;;;-0.52;100.00;103159.84;5066495;28;20036;-63
2024/01/28 04:36:37;;;;;;;12.03;3.23;;;;;;;-0.51;100.00;103151.31;5068177;28;20040;-67
2024/01/28 04:39:02;;;;;;;13.57;3.50;;;;;;;-0.52;100.00;103158.91;5068452;28;20040;-63
2024/01/28 04:41:28;;;;;;;10.27;3.17;;;;;;;-0.54;100.00;103161.31;5059946;28;20037;-65
2024/01/28 04:43:54;;;;;;;11.60;3.40;;;;;;;-0.53;100.00;103162.25;5063381;28;20028;-69
2024/01/28 04:46:19;;;;;;;13.60;3.47;;;;;;;-0.57;100.00;103155.75;5079178;28;20690;-65
2024/01/28 04:48:45;;;;;;;20.27;2.90;;;;;;;-0.58;100.00;103160.75;5065751;28;20892;-70
2024/01/28 04:51:11;;;;;;;16.20;3.50;;;;;;;-0.60;100.00;103163.19;5059611;28;20170;-63
2024/01/28 04:55:54;;;;;;;7.88;2.78;;;;;;;-0.62;100.00;103163.72;5091929;27;20366;-63
2024/01/28 04:58:20;;;;;;;12.63;3.17;;;;;;;-0.65;100.00;103163.34;5094648;28;20039;-64
2024/01/28 05:00:45;;;;;;;17.13;3.20;;;;;;;-0.67;100.00;103163.16;5071201;28;20048;-70
2024/01/28 05:03:11;;;;;;;13.17;3.30;;;;;;;-0.66;100.00;103166.66;5066737;28;20118;-68
2024/01/28 05:05:55;;;;;;;20.03;3.67;;;;;;;-0.68;100.00;103169.06;5122251;27;20389;-63
2024/01/28 05:08:20;;;;;;;14.35;3.97;;;;;;;-0.69;100.00;103176.69;5122358;28;20031;-63
2024/01/28 05:10:45;;;;;;;12.67;3.43;;;;;;;-0.72;100.00;103177.22;5123555;27;20039;-72
2024/01/28 05:13:11;;;;;;;11.53;3.33;;;;;;;-0.74;100.00;103183.88;5122011;27;20173;-65
2024/01/28 05:15:36;;;;;;;15.60;4.60;;;;;;;-0.75;100.00;103184.63;5123776;27;20782;-63
2024/01/28 05:20:15;;;;;;;12.00;3.63;;;;;;;-0.76;100.00;103195.75;5097930;27;20417;-63
2024/01/28 05:22:40;;;;;;;10.10;3.05;;;;;;;-0.78;100.00;103181.63;5083994;28;20050;-63
2024/01/28 05:25:06;;;;;;;10.17;2.93;;;;;;;-0.80;100.00;103188.31;5083668;28;20419;-69
2024/01/28 05:29:54;;;;;;;11.68;3.08;;;;;;;-0.85;100.00;103194.59;5044043;28;20783;-64
2024/01/28 05:32:19;;;;;;;11.57;3.45;;;;;;;-0.87;100.00;103199.59;5021329;28;20044;-71
2024/01/28 05:34:45;;;;;;;8.63;2.80;;;;;;;-0.89;100.00;103194.97;5027739;28;20120;-64
2024/01/28 05:37:14;;;;;;;13.53;3.13;;;;;;;-0.89;100.00;103203.66;5020864;28;20113;-68
2024/01/28 05:39:40;;;;;;;11.40;3.28;;;;;;;-0.89;100.00;103192.38;5020121;28;20053;-68
2024/01/28 05:42:05;;;;;;;16.07;3.40;;;;;;;-0.88;100.00;103195.13;5017974;28;20050;-65
2024/01/28 05:44:30;;;;;;;10.98;2.97;;;;;;;-0.88;100.00;103202.00;5021274;28;20811;-70
2024/01/28 05:46:56;;;;;;;15.17;2.50;;;;;;;-0.89;100.00;103202.75;5032809;28;20048;-67
2024/01/28 05:49:21;;;;;;;15.87;3.27;;;;;;;-0.88;100.00;103208.13;5031412;28;20446;-66
2024/01/28 05:51:46;;;;;;;16.27;3.03;;;;;;;-0.87;100.00;103204.78;5021502;28;20038;-75
2024/01/28 05:54:12;;;;;;;17.70;3.37;;;;;;;-0.87;100.00;103199.59;5021278;28;20109;-67
2024/01/28 05:56:37;;;;;;;14.35;4.05;;;;;;;-0.85;100.00;103199.81;5019054;28;20103;-66
2024/01/28 05:59:03;;;;;;;13.87;3.70;;;;;;;-0.84;100.00;103199.06;5022530;28;20038;-66
2024/01/28 06:01:28;;;;;;;10.63;3.17;;;;;;;-0.85;100.00;103202.41;5021047;28;20112;-67
2024/01/28 06:03:53;;;;;;;17.93;3.80;;;;;;;-0.86;100.00;103200.53;5029128;28;20030;-71
2024/01/28 06:06:19;;;;;;;12.90;4.10;;;;;;;-0.86;100.00;103200.53;5027126;28;20112;-66
2024/01/28 06:08:44;;;;;;;16.58;4.07;;;;;;;-0.86;100.00;103195.34;5021832;28;20041;-67
2024/01/28 06:11:09;;;;;;;19.80;4.03;;;;;;;-0.87;100.00;103199.59;5023206;28;20120;-70
2024/01/28 06:13:36;;;;;;;14.27;3.97;;;;;;;-0.90;100.00;103204.41;5025863;28;20037;-66
2024/01/28 06:16:02;;;;;;;18.02;4.38;;;;;;;-0.90;100.00;103198.28;5021862;28;20046;-63
2024/01/28 06:18:27;;;;;;;13.13;4.00;;;;;;;-0.90;100.00;103209.59;5023446;28;20042;-64
2024/01/28 06:20:53;;;;;;;13.75;3.60;;;;;;;-0.89;100.00;103206.25;5022939;28;20475;-67
2024/01/28 06:25:46;;;;;;;13.90;3.97;;;;;;;-0.89;100.00;103202.75;5081357;28;20412;-63
2024/01/28 06:28:11;;;;;;;12.00;3.63;;;;;;;-0.92;100.00;103211.06;5083846;28;20062;-64
2024/01/28 06:30:37;;;;;;;11.83;3.80;;;;;;;-0.95;100.00;103213.28;5085927;28;20285;-65
2024/01/28 06:35:33;;;;;;;16.02;4.35;;;;;;;-0.97;100.00;103212.16;5103435;27;20363;-66
2024/01/28 06:37:58;;;;;;;18.73;5.13;;;;;;;-0.97;100.00;103206.03;5096240;28;20615;-66
2024/01/28 06:40:23;;;;;;;14.70;4.03;;;;;;;-0.98;100.00;103196.38;5076375;28;20032;-67
2024/01/28 06:42:49;;;;;;;15.13;5.13;;;;;;;-0.99;100.00;103195.44;5059711;28;21086;-70
2024/01/28 06:45:14;;;;;;;15.80;4.07;;;;;;;-0.97;100.00;103195.66;5060185;28;20067;-63
2024/01/28 06:47:40;;;;;;;17.67;5.07;;;;;;;-0.97;100.00;103195.66;5068387;28;20063;-69
2024/01/28 06:52:34;;;;;;;21.30;5.35;;;;;;;-0.99;100.00;103205.81;5060324;28;20369;-66
2024/01/28 06:54:59;;;;;;;13.60;4.60;;;;;;;-1.01;100.00;103201.19;5059749;28;20063;-66
2024/01/28 06:57:25;;;;;;;12.65;4.78;;;;;;;-1.01;100.00;103207.31;5043494;28;20170;-70
2024/01/28 06:59:50;;;;;;;15.57;4.23;;;;;;;-0.98;100.00;103207.69;5033870;28;20040;-66
2024/01/28 07:02:16;;;;;;;17.73;4.70;;;;;;;-0.96;100.00;103211.44;5022182;28;20128;-65
2024/01/28 07:04:41;;;;;;;14.65;4.50;;;;;;;-0.98;100.00;103214.53;5021515;28;20068;-67
2024/01/28 07:07:07;;;;;;;16.90;5.13;;;;;;;-0.96;100.00;103208.81;5020162;28;20072;-69
2024/01/28 07:09:32;;;;;;;15.40;4.50;;;;;;;-0.98;100.00;103210.28;5019912;28;20611;-65
2024/01/28 07:14:26;;;;;;;12.77;4.07;;;;;;;-0.97;100.00;103211.22;5079141;28;20371;-65
2024/01/28 07:19:23;;;;;;;15.85;4.85;;;;;;;-0.93;100.00;103203.09;5081846;27;20441;-67
2024/01/28 07:21:50;;;;;;;15.77;5.07;;;;;;;-0.89;100.00;103203.66;5061616;28;20613;-65
2024/01/28 07:24:16;;;;;;;16.13;5.03;;;;;;;-0.82;100.00;103196.63;5058551;28;20063;-70
2024/01/28 07:26:43;;;;;;;14.67;4.53;;;;;;;-0.78;100.00;103197.22;5057586;28;20057;-64
2024/01/28 07:29:08;;;;;;;12.27;4.22;;;;;;;-0.74;100.00;103195.94;5060268;28;20040;-63
2024/01/28 07:31:33;;;;;;;11.10;4.20;;;;;;;-0.70;100.00;103196.53;5059963;28;20048;-65
2024/01/28 07:33:59;;;;;;;13.87;4.63;;;;;;;-0.67;100.00;103189.09;5066845;28;21091;-68
2024/01/28 07:36:24;;;;;;;11.70;4.83;;;;;;;-0.62;100.00;103181.88;5068114;28;20040;-65
2024/01/28 07:38:49;;;;;;;16.80;4.87;;;;;;;-0.58;100.00;103176.31;5060024;28;20040;-67
2024/01/28 07:41:15;;;;;;;15.30;4.77;;;;;;;-0.54;100.00;103184.66;5068506;28;20135;-67
2024/01/28 07:43:41;;;;;;;15.65;4.65;;;;;;;-0.51;100.00;103190.28;5062249;28;20041;-64
2024/01/28 07:46:08;;;;;;;15.07;4.63;;;;;;;-0.47;100.00;103187.31;5075543;28;20040;-68
2024/01/28 07:48:34;;;;;;;15.07;5.55;;;;;;;-0.41;100.00;103191.41;5065739;28;20032;-70
2024/01/28 07:50:59;;;;;;;16.70;4.97;;;;;;;-0.34;100.00;103188.78;5051287;28;20122;-65
2024/01/28 07:53:25;;;;;;;11.83;4.53;;;;;;;-0.29;100.00;103191.22;5058823;28;20047;-63
2024/01/28 07:55:50;;;;;;;17.07;5.10;;;;;;;-0.23;100.00;103185.84;5057828;28;20334;-65
2024/01/28 07:58:16;;;;;;;23.20;5.40;;;;;;;-0.15;100.00;103188.63;5059005;28;20436;-68
2024/01/28 08:00:41;;;;;;;15.88;5.10;;;;;;;-0.08;100.00;103187.72;5061819;28;20123;-65
2024/01/28 08:03:06;;;;;;;18.80;5.70;;;;;;;0.01;100.00;103188.81;5060202;28;20120;-63
2024/01/28 08:05:32;;;;;;;17.27;5.53;;;;;;;0.07;100.00;103196.44;5057791;28;20041;-69
2024/01/28 08:07:57;;;;;;;17.77;5.37;;;;;;;0.11;100.00;103197.00;5061574;28;20127;-65
2024/01/28 08:10:24;;;;;;;16.93;4.97;;;;;;;0.17;100.00;103200.34;5059486;28;20115;-64
2024/01/28 08:12:50;;;;;;;16.75;5.20;;;;;;;0.23;100.00;103195.91;5064646;28;20035;-67
2024/01/28 08:15:15;;;;;;;16.08;5.78;;;;;;;0.27;100.00;103199.78;5067242;28;20248;-69
2024/01/28 08:17:41;;;;;;;17.00;5.60;;;;;;;0.32;100.00;103199.59;5058700;28;20509;-64
2024/01/28 08:20:07;;;;;;;15.50;5.28;;;;;;;0.38;100.00;103199.41;5062389;28;20036;-70
2024/01/28 08:22:33;;;;;;;20.07;5.27;;;;;;;0.46;100.00;103201.25;5064560;28;20033;-65
2024/01/28 08:24:58;;;;;;;16.73;5.38;;;;;;;0.53;100.00;103201.25;5059980;28;20024;-70
2024/01/28 08:27:23;;;;;;;12.87;4.87;;;;;;;0.59;100.00;103193.25;5060221;28;20127;-65
2024/01/28 08:29:49;;;;;;;16.63;4.73;;;;;;;0.69;100.00;103188.41;5054111;28;20782;-73
2024/01/28 08:32:14;;;;;;;18.30;6.27;;;;;;;0.77;100.00;103182.44;5050453;28;20141;-68
2024/01/28 08:34:40;;;;;;;17.80;6.30;;;;;;;0.86;100.00;103183.50;5057001;28;20481;-66
2024/01/28 08:37:05;;;;;;;17.63;5.27;;;;;;;0.95;100.00;103181.03;5044090;28;20278;-65
2024/01/28 08:39:30;;;;;;;16.10;6.23;;;;;;;0.99;100.00;103185.91;5046379;28;20424;-71
2024/01/28 08:41:56;;;;;;;16.20;6.03;;;;;;;1.06;100.00;103184.16;5054210;28;20033;-67
2024/01/28 08:44:22;;;;;;;24.90;6.20;;;;;;;1.05;100.00;103187.50;5048098;28;20036;-66
2024/01/28 08:46:47;;;;;;;18.67;6.35;;;;;;;1.14;100.00;103187.66;5056774;28;20044;-64
2024/01/28 08:49:13;;;;;;;17.47;5.37;;;;;;;1.24;100.00;103201.00;5050566;28;20120;-67
2024/01/28 08:51:39;;;;;;;16.03;5.33;;;;;;;1.34;100.00;103198.72;5054868;28;20103;-64
2024/01/28 08:54:05;;;;;;;15.43;5.60;;;;;;;1.46;100.00;103209.66;5046173;28;20290;-70
2024/01/28 08:56:30;;;;;;;15.48;5.15;;;;;;;1.53;100.00;103217.44;5044988;28;20048;-74
2024/01/28 08:58:56;;;;;;;14.90;5.10;;;;;;;1.65;100.00;103213.63;5046921;28;20050;-67
2024/01/28 09:01:21;;;;;;;17.53;6.23;;;;;;;1.74;100.00;103209.47;5049527;28;20045;-64
2024/01/28 09:03:47;;;;;;;21.63;7.00;;;;;;;1.82;100.00;103198.25;5046298;28;20037;-68
2024/01/28 09:06:12;;;;;;;18.77;5.17;;;;;;;1.90;100.00;103189.63;5048135;28;20044;-65
2024/01/28 09:08:37;;;;;;;19.00;5.97;;;;;;;1.94;100.00;103181.41;5065166;28;20040;-68
2024/01/28 09:11:03;;;;;;;15.40;5.63;;;;;;;2.02;100.00;103183.19;5045173;28;20577;-69
2024/01/28 09:13:28;;;;;;;18.90;5.32;;;;;;;2.12;100.00;103185.19;5045998;28;20049;-71
2024/01/28 09:15:54;;;;;;;15.20;5.73;;;;;;;2.21;100.00;103200.94;5053423;28;20033;-66
2024/01/28 09:18:20;;;;;;;14.70;5.57;;;;;;;2.26;100.00;103205.00;5045545;28;20131;-66
2024/01/28 09:20:45;;;;;;;18.00;5.77;;;;;;;2.35;100.00;103212.16;5037663;28;20040;-70
2024/01/28 09:23:10;;;;;;;21.85;5.75;;;;;;;2.49;100.00;103203.28;5044164;28;20064;-72
2024/01/28 09:25:36;;;;;;;14.33;4.60;;;;;;;2.59;100.00;103201.88;5036445;28;20683;-66
2024/01/28 09:28:01;;;;;;;19.33;5.33;;;;;;;2.66;100.00;103200.88;5044473;28;20090;-68
2024/01/28 09:30:27;;;;;;;11.50;4.50;;;;;;;2.73;100.00;103192.94;5041258;28;21294;-72
2024/01/28 09:32:52;;;;;;;15.93;4.70;;;;;;;2.82;100.00;103188.75;5045155;28;20036;-67
2024/01/28 09:35:17;;;;;;;16.33;5.27;;;;;;;2.93;100.00;103202.97;5045359;28;20123;-65
2024/01/28 09:37:43;;;;;;;14.90;4.13;;;;;;;3.06;100.00;103203.56;5042841;28;20044;-71
2024/01/28 09:40:11;;;;;;;12.83;4.53;;;;;;;3.19;100.00;103208.47;5044827;28;20036;-63
2024/01/28 09:42:57;;;;;;;21.65;5.05;;;;;;;3.32;100.00;103219.47;5044465;28;20515;-62
2024/01/28 09:45:24;;;;;;;14.20;4.13;;;;;;;3.39;100.00;103230.78;5044836;28;20065;-70
2024/01/28 09:47:50;;;;;;;19.90;5.53;;;;;;;3.47;100.00;103226.38;5046467;28;20125;-66
2024/01/28 09:50:16;;;;;;;16.83;4.10;;;;;;;3.51;98.77;103215.47;5050537;28;20129;-65
2024/01/28 09:52:41;;;;;;;16.35;4.03;;;;;;;3.62;98.63;103209.72;5046277;28;20107;-67
2024/01/28 09:55:07;;;;;;;13.43;4.30;;;;;;;3.73;98.38;103203.97;5043198;28;20041;-63
2024/01/28 09:57:33;;;;;;;11.27;4.28;;;;;;;3.81;97.75;103197.88;5052821;28;20039;-65
2024/01/28 09:59:58;;;;;;;14.23;4.13;;;;;;;3.88;96.33;103194.22;5046513;28;20852;-66
2024/01/28 10:02:24;;;;;;;13.97;5.20;;;;;;;3.96;95.70;103184.56;5048422;28;20064;-72
2024/01/28 10:04:50;;;;;;;20.65;4.60;;;;;;;4.01;94.67;103180.75;5046389;28;20046;-67
2024/01/28 10:07:15;;;;;;;11.20;3.77;;;;;;;4.08;94.23;103180.63;5053703;28;20048;-65
2024/01/28 10:09:41;;;;;;;13.90;4.65;;;;;;;4.15;92.93;103180.50;5061226;28;20120;-71
2024/01/28 10:12:08;;;;;;;16.60;4.00;;;;;;;4.29;92.90;103173.34;5045747;28;20059;-66
2024/01/28 10:14:34;;;;;;;12.90;3.85;;;;;;;4.40;92.11;103174.44;5045152;28;20162;-74
2024/01/28 10:16:59;;;;;;;17.00;4.80;;;;;;;4.46;91.97;103180.34;5044588;28;20116;-65
2024/01/28 10:19:25;;;;;;;14.87;4.23;;;;;;;4.50;90.01;103179.88;5045446;28;20464;-65
2024/01/28 10:21:53;;;;;;;12.30;4.15;;;;;;;4.62;90.43;103177.63;5049984;28;20032;-70
2024/01/28 10:24:19;;;;;;;18.55;4.25;;;;;;;4.73;90.46;103177.97;5042720;28;20040;-70
2024/01/28 10:26:45;;;;;;;10.60;3.97;;;;;;;4.82;90.17;103177.97;5041320;28;20041;-66
2024/01/28 10:29:12;;;;;;;12.80;3.80;;;;;;;4.90;88.51;103177.06;5044295;28;20112;-68
2024/01/28 10:31:38;;;;;;;10.60;3.40;;;;;;;4.96;87.30;103177.69;5042384;28;20127;-67
2024/01/28 10:34:04;;;;;;;15.70;3.90;;;;;;;5.06;87.80;103171.69;5043901;28;20037;-68
2024/01/28 10:36:34;;;;;;;19.08;4.10;;;;;;;5.10;85.92;103172.16;5042826;28;20922;-68
2024/01/28 10:39:05;;;;;;;12.18;3.22;;;;;;;5.22;85.39;103167.22;5030608;28;20783;-66
2024/01/28 10:41:34;;;;;;;14.87;3.77;;;;;;;5.29;84.88;103159.19;5040653;28;20183;-68
2024/01/28 10:44:06;;;;;;;12.82;3.58;;;;;;;5.38;85.21;103153.97;5035777;28;20097;-67
2024/01/28 10:46:37;;;;;;;14.50;3.67;;;;;;;5.48;85.01;103148.84;5041232;28;20501;-67
2024/01/28 10:49:05;;;;;;;11.77;3.10;;;;;;;5.56;83.43;103153.16;5048524;28;20033;-68
2024/01/28 10:51:35;;;;;;;14.13;3.65;;;;;;;5.69;83.04;103144.78;5043391;28;20052;-68
2024/01/28 10:54:03;;;;;;;14.27;3.63;;;;;;;5.76;82.54;103139.41;5035739;28;20028;-67
2024/01/28 10:56:29;;;;;;;11.75;4.18;;;;;;;5.83;81.46;103134.88;5037740;28;20045;-71
2024/01/28 10:58:55;;;;;;;11.97;3.20;;;;;;;5.91;80.75;103135.69;5042814;28;20033;-67
2024/01/28 11:01:21;;;;;;;13.30;3.00;;;;;;;6.10;81.33;103133.13;5046228;28;20052;-71
2024/01/28 11:03:46;;;;;;;11.00;3.00;;;;;;;6.16;80.70;103137.28;5043962;28;20041;-65
2024/01/28 11:06:17;;;;;;;9.10;2.97;;;;;;;6.20;79.26;103130.63;5043524;28;20070;-71
2024/01/28 11:08:42;;;;;;;19.42;3.17;;;;;;;6.32;79.86;103130.09;5045119;28;20077;-68
2024/01/28 11:11:08;;;;;;;14.60;3.40;;;;;;;6.37;78.97;103120.94;5051563;28;20078;-65
2024/01/28 11:13:33;;;;;;;12.07;3.50;;;;;;;6.42;78.07;103121.38;5043452;28;20029;-67
2024/01/28 11:15:59;;;;;;;12.17;3.13;;;;;;;6.42;76.80;103113.50;5048913;28;20045;-69
2024/01/28 11:18:29;;;;;;;10.18;2.88;;;;;;;6.49;77.12;103106.38;5049785;28;20080;-68
2024/01/28 11:20:54;;;;;;;16.43;3.50;;;;;;;6.53;75.57;103102.31;5054396;28;20585;-65
2024/01/28 11:23:20;;;;;;;8.88;2.72;;;;;;;6.63;75.48;103118.16;5055308;28;20036;-70
2024/01/28 11:25:46;;;;;;;11.27;3.10;;;;;;;6.73;76.11;103104.19;5052925;28;20108;-66
2024/01/28 11:28:14;;;;;;;9.30;2.80;;;;;;;6.86;76.53;103109.81;5044698;28;20233;-67
2024/01/28 11:30:40;;;;;;;12.85;3.33;;;;;;;6.96;75.53;103101.09;5039046;28;20509;-68
2024/01/28 11:33:13;;;;;;;12.27;2.80;;;;;;;7.01;74.33;103098.09;5042677;28;20063;-65
2024/01/28 11:35:43;;;;;;;8.80;2.53;;;;;;;7.07;74.09;103097.75;5042678;28;20040;-65
2024/01/28 11:38:14;;;;;;;17.95;3.00;;;;;;;7.11;73.36;103085.03;5043012;28;20575;-70
2024/01/28 11:40:40;;;;;;;14.33;2.53;;;;;;;7.21;74.18;103085.06;5042995;28;20041;-74